createdAt,value
2017-09-07T00:00:08.634Z,56.00
2017-09-07T00:02:36.308Z,56.00
2017-09-07T00:05:03.872Z,56.00
2017-09-07T00:07:31.461Z,56.00
2017-09-07T00:09:59.849Z,56.00
2017-09-07T00:12:27.376Z,56.00
2017-09-07T00:14:54.922Z,55.90
2017-09-07T00:17:22.449Z,56.00
2017-09-07T00:19:50.059Z,56.10
2017-09-07T00:22:17.561Z,56.00
2017-09-07T00:24:45.863Z,56.00
2017-09-07T00:27:13.390Z,56.00
2017-09-07T00:29:40.892Z,56.10
2017-09-07T00:32:08.626Z,56.10
2017-09-07T00:34:36.133Z,56.00
2017-09-07T00:37:03.813Z,56.00
2017-09-07T00:39:32.280Z,56.00
2017-09-07T00:41:59.806Z,56.00
2017-09-07T00:44:27.352Z,56.10
2017-09-07T00:46:54.930Z,56.10
2017-09-07T00:49:22.534Z,56.10
2017-09-07T00:51:50.813Z,56.20
2017-09-07T00:54:19.158Z,56.30
2017-09-07T00:56:46.718Z,56.00
2017-09-07T00:59:14.245Z,56.10
2017-09-07T01:01:41.786Z,56.10
2017-09-07T01:04:10.109Z,56.10
2017-09-07T01:06:37.661Z,56.00
2017-09-07T01:09:05.187Z,56.00
2017-09-07T01:11:32.690Z,56.10
2017-09-07T01:14:00.301Z,56.00
2017-09-07T01:16:27.849Z,56.10
2017-09-07T01:18:56.134Z,56.20
2017-09-07T01:21:23.841Z,56.20
2017-09-07T01:23:51.446Z,56.10
2017-09-07T01:26:18.969Z,56.10
2017-09-07T01:28:46.571Z,56.20
2017-09-07T01:31:14.884Z,56.20
2017-09-07T01:33:42.442Z,56.10
2017-09-07T01:36:09.981Z,56.10
2017-09-07T01:38:37.500Z,56.10
2017-09-07T01:41:05.127Z,56.00
2017-09-07T01:43:32.634Z,56.10
2017-09-07T01:46:00.170Z,56.10
2017-09-07T01:48:45.627Z,56.00
2017-09-07T01:51:13.293Z,56.00
2017-09-07T01:53:40.841Z,56.10
2017-09-07T01:56:08.653Z,56.10
2017-09-07T01:58:36.305Z,56.00
2017-09-07T02:01:03.948Z,56.30
2017-09-07T02:03:31.515Z,56.20
2017-09-07T02:05:59.082Z,56.20
2017-09-07T02:08:26.588Z,56.10
2017-09-07T02:10:54.910Z,56.10
2017-09-07T02:13:22.472Z,56.00
2017-09-07T02:15:49.957Z,56.00
2017-09-07T02:18:17.500Z,56.00
2017-09-07T02:20:44.993Z,56.00
2017-09-07T02:23:12.525Z,56.00
2017-09-07T02:25:40.126Z,56.00
2017-09-07T02:28:08.406Z,56.00
2017-09-07T02:30:36.053Z,56.00
2017-09-07T02:33:03.569Z,56.10
2017-09-07T02:35:31.181Z,56.00
2017-09-07T02:37:59.575Z,56.10
2017-09-07T02:40:27.853Z,56.10
2017-09-07T02:42:56.346Z,55.90
2017-09-07T02:45:23.861Z,55.90
2017-09-07T02:47:51.374Z,56.00
2017-09-07T02:50:18.996Z,56.00
2017-09-07T02:52:46.490Z,55.90
2017-09-07T02:55:14.035Z,56.00
2017-09-07T02:57:42.462Z,56.10
2017-09-07T03:00:10.149Z,56.00
2017-09-07T03:02:37.732Z,56.00
2017-09-07T03:05:06.031Z,56.00
2017-09-07T03:07:34.344Z,56.00
2017-09-07T03:10:01.892Z,55.90
2017-09-07T03:12:29.413Z,56.00
2017-09-07T03:14:57.694Z,56.00
2017-09-07T03:17:25.969Z,56.00
2017-09-07T03:19:54.329Z,55.90
2017-09-07T03:22:21.845Z,55.90
2017-09-07T03:24:49.360Z,56.00
2017-09-07T03:27:16.880Z,56.00
2017-09-07T03:29:44.433Z,55.90
2017-09-07T03:32:12.062Z,55.90
2017-09-07T03:34:39.562Z,55.90
2017-09-07T03:37:07.139Z,55.70
2017-09-07T03:39:34.653Z,55.80
2017-09-07T03:42:02.198Z,55.70
2017-09-07T03:44:30.474Z,56.00
2017-09-07T03:46:58.015Z,55.90
2017-09-07T03:49:25.527Z,55.90
2017-09-07T03:51:53.074Z,55.90
2017-09-07T03:54:20.740Z,55.80
2017-09-07T03:56:48.266Z,55.90
2017-09-07T03:59:16.664Z,56.00
2017-09-07T04:01:44.168Z,55.90
2017-09-07T04:04:11.695Z,55.90
2017-09-07T04:06:39.223Z,56.00
2017-09-07T04:09:07.513Z,56.00
2017-09-07T04:11:35.119Z,56.00
2017-09-07T04:14:02.659Z,56.00
2017-09-07T04:16:30.179Z,56.10
2017-09-07T04:18:58.542Z,56.20
2017-09-07T04:21:26.306Z,56.10
2017-09-07T04:23:53.816Z,56.10
2017-09-07T04:26:21.512Z,56.40
2017-09-07T04:28:49.025Z,57.10
2017-09-07T04:31:16.679Z,56.40
2017-09-07T04:33:44.976Z,56.30
2017-09-07T04:36:12.642Z,56.30
2017-09-07T04:38:40.166Z,56.20
2017-09-07T04:41:07.690Z,56.40
2017-09-07T04:43:35.218Z,56.40
2017-09-07T04:46:02.772Z,56.30
2017-09-07T04:48:30.336Z,56.30
2017-09-07T04:50:57.906Z,56.30
2017-09-07T04:53:25.425Z,56.30
2017-09-07T04:55:53.795Z,56.30
2017-09-07T04:58:21.346Z,56.30
2017-09-07T05:00:48.868Z,56.10
2017-09-07T05:03:16.647Z,56.10
2017-09-07T05:05:44.234Z,56.30
2017-09-07T05:08:11.800Z,56.10
2017-09-07T05:10:39.335Z,56.10
2017-09-07T05:13:07.266Z,56.00
2017-09-07T05:15:34.861Z,56.00
2017-09-07T05:18:02.361Z,55.90
2017-09-07T05:20:29.875Z,55.90
2017-09-07T05:22:57.376Z,56.00
2017-09-07T05:25:24.994Z,55.80
2017-09-07T05:27:52.506Z,55.90
2017-09-07T05:30:20.852Z,55.90
2017-09-07T05:32:48.358Z,55.80
2017-09-07T05:35:16.815Z,55.80
2017-09-07T05:37:44.478Z,55.70
2017-09-07T05:40:12.289Z,55.80
2017-09-07T05:42:39.961Z,55.60
2017-09-07T05:45:07.601Z,55.60
2017-09-07T05:47:35.139Z,55.50
2017-09-07T05:50:03.402Z,55.70
2017-09-07T05:52:30.934Z,55.50
2017-09-07T05:54:58.539Z,55.50
2017-09-07T05:57:26.198Z,55.60
2017-09-07T05:59:54.551Z,56.40
2017-09-07T06:02:22.226Z,55.60
2017-09-07T06:04:50.587Z,55.50
2017-09-07T06:07:18.207Z,55.50
2017-09-07T06:09:46.741Z,55.30
2017-09-07T06:12:14.255Z,55.30
2017-09-07T06:14:41.770Z,55.40
2017-09-07T06:17:09.301Z,55.30
2017-09-07T06:19:36.831Z,55.30
2017-09-07T06:22:04.342Z,55.30
2017-09-07T06:24:31.973Z,55.20
2017-09-07T06:26:59.704Z,55.40
2017-09-07T06:29:27.981Z,55.20
2017-09-07T06:31:55.674Z,55.20
2017-09-07T06:34:23.361Z,55.30
2017-09-07T06:36:50.977Z,55.40
2017-09-07T06:39:18.501Z,55.50
2017-09-07T06:41:46.068Z,55.30
2017-09-07T06:44:13.637Z,55.40
2017-09-07T06:46:41.934Z,55.50
2017-09-07T06:49:09.499Z,55.40
2017-09-07T06:51:37.774Z,55.30
2017-09-07T06:54:05.290Z,55.20
2017-09-07T06:56:32.812Z,55.30
2017-09-07T06:59:00.417Z,53.00
2017-09-07T07:01:27.945Z,52.70
2017-09-07T07:03:55.467Z,52.50
2017-09-07T07:06:22.983Z,52.30
2017-09-07T07:08:50.520Z,52.20
2017-09-07T07:11:18.229Z,52.00
2017-09-07T07:13:45.752Z,51.90
2017-09-07T07:16:14.622Z,51.80
2017-09-07T07:18:42.629Z,51.90
2017-09-07T07:21:10.491Z,52.10
2017-09-07T07:23:38.009Z,52.20
2017-09-07T07:26:05.534Z,52.40
2017-09-07T07:28:33.070Z,52.40
2017-09-07T07:31:00.607Z,52.80
2017-09-07T07:33:28.204Z,53.00
2017-09-07T07:35:55.769Z,53.50
2017-09-07T07:38:23.445Z,53.70
2017-09-07T07:40:50.976Z,53.80
2017-09-07T07:43:18.732Z,54.10
2017-09-07T07:45:46.487Z,54.60
2017-09-07T07:48:14.084Z,54.90
2017-09-07T07:50:41.748Z,55.20
2017-09-07T07:53:10.169Z,55.50
2017-09-07T07:55:37.705Z,55.50
2017-09-07T07:58:05.369Z,55.80
2017-09-07T08:00:32.984Z,55.70
2017-09-07T08:03:00.516Z,55.80
2017-09-07T08:05:28.914Z,55.80
2017-09-07T08:07:56.497Z,56.00
2017-09-07T08:10:24.190Z,56.00
2017-09-07T08:12:52.709Z,56.50
2017-09-07T08:15:20.282Z,56.30
2017-09-07T08:17:48.076Z,56.20
2017-09-07T08:20:15.597Z,56.20
2017-09-07T08:22:44.014Z,56.20
2017-09-07T08:25:11.590Z,56.30
2017-09-07T08:27:39.121Z,56.30
2017-09-07T08:30:06.833Z,56.30
2017-09-07T08:32:35.142Z,56.40
2017-09-07T08:35:02.646Z,56.40
2017-09-07T08:37:30.178Z,56.30
2017-09-07T08:39:57.706Z,56.40
2017-09-07T08:42:25.329Z,56.30
2017-09-07T08:44:52.869Z,56.20
2017-09-07T08:47:20.411Z,56.30
2017-09-07T08:49:48.112Z,56.30
2017-09-07T08:52:15.757Z,56.30
2017-09-07T08:54:43.277Z,56.50
2017-09-07T08:57:10.835Z,56.70
2017-09-07T08:59:38.506Z,56.60
2017-09-07T09:02:06.054Z,56.50
2017-09-07T09:04:34.344Z,56.50
2017-09-07T09:07:01.841Z,56.50
2017-09-07T09:09:29.388Z,56.50
2017-09-07T09:11:56.951Z,56.60
2017-09-07T09:14:24.593Z,56.60
2017-09-07T09:16:52.285Z,56.60
2017-09-07T09:19:19.878Z,56.70
2017-09-07T09:21:47.562Z,56.70
2017-09-07T09:24:15.094Z,56.80
2017-09-07T09:26:42.660Z,57.70
2017-09-07T09:29:10.183Z,56.90
2017-09-07T09:31:37.697Z,56.90
2017-09-07T09:34:05.391Z,56.70
2017-09-07T09:36:33.009Z,56.90
2017-09-07T09:39:00.635Z,57.00
2017-09-07T09:41:28.511Z,57.10
2017-09-07T09:43:56.055Z,57.10
2017-09-07T09:46:23.654Z,57.00
2017-09-07T09:48:51.259Z,57.20
2017-09-07T09:51:18.909Z,57.10
2017-09-07T09:53:46.427Z,57.10
2017-09-07T09:56:13.963Z,57.00
2017-09-07T09:58:41.539Z,57.00
2017-09-07T10:01:09.076Z,57.10
2017-09-07T10:03:36.610Z,57.20
2017-09-07T10:06:04.158Z,56.90
2017-09-07T10:08:31.669Z,57.00
2017-09-07T10:10:59.235Z,57.00
2017-09-07T10:13:26.766Z,57.00
2017-09-07T10:15:54.365Z,57.00
2017-09-07T10:18:22.026Z,57.00
2017-09-07T10:20:49.533Z,57.10
2017-09-07T10:23:17.914Z,57.00
2017-09-07T10:25:45.531Z,57.00
2017-09-07T10:28:13.056Z,56.90
2017-09-07T10:30:40.732Z,56.90
2017-09-07T10:33:08.280Z,57.00
2017-09-07T10:35:35.822Z,57.10
2017-09-07T10:38:03.338Z,57.00
2017-09-07T10:40:31.007Z,56.90
2017-09-07T10:42:58.621Z,56.80
2017-09-07T10:45:26.153Z,56.80
2017-09-07T10:47:54.467Z,56.90
2017-09-07T10:50:22.854Z,57.00
2017-09-07T10:52:50.512Z,56.90
2017-09-07T10:55:18.019Z,56.90
2017-09-07T10:57:45.578Z,56.90
2017-09-07T11:00:13.283Z,56.80
2017-09-07T11:02:40.794Z,56.70
2017-09-07T11:05:08.312Z,56.60
2017-09-07T11:07:36.037Z,56.60
2017-09-07T11:10:04.326Z,56.50
2017-09-07T11:12:31.962Z,56.40
2017-09-07T11:14:59.554Z,56.50
2017-09-07T11:17:27.114Z,56.40
2017-09-07T11:19:54.587Z,56.30
2017-09-07T11:22:22.163Z,56.20
2017-09-07T11:24:59.644Z,56.20
2017-09-07T11:27:27.184Z,56.20
2017-09-07T11:29:54.744Z,56.20
2017-09-07T11:32:23.163Z,56.10
2017-09-07T11:34:50.723Z,56.10
2017-09-07T11:37:18.435Z,56.20
2017-09-07T11:39:48.527Z,56.10
2017-09-07T11:42:16.423Z,56.10
2017-09-07T11:44:45.615Z,56.20
2017-09-07T11:47:23.730Z,56.10
2017-09-07T11:49:52.763Z,56.20
2017-09-07T11:52:22.015Z,56.20
2017-09-07T11:54:51.065Z,56.30
2017-09-07T11:57:18.752Z,56.30
2017-09-07T11:59:46.322Z,57.20
2017-09-07T12:02:13.932Z,56.30
2017-09-07T12:04:41.946Z,56.50
2017-09-07T12:07:10.155Z,56.30
2017-09-07T12:09:39.501Z,56.40
2017-09-07T12:12:07.736Z,56.50
2017-09-07T12:14:35.742Z,56.40
2017-09-07T12:17:03.247Z,56.60
2017-09-07T12:19:33.185Z,56.50
2017-09-07T12:22:12.799Z,56.30
2017-09-07T12:24:41.055Z,56.30
2017-09-07T12:27:09.437Z,56.50
2017-09-07T12:29:37.807Z,56.30
2017-09-07T12:32:05.429Z,56.50
2017-09-07T12:34:34.076Z,56.50
2017-09-07T12:37:09.891Z,56.40
2017-09-07T12:39:38.401Z,56.40
2017-09-07T12:42:08.692Z,56.40
2017-09-07T12:44:36.877Z,56.60
2017-09-07T12:47:04.875Z,56.50
2017-09-07T12:49:32.579Z,56.40
2017-09-07T12:52:01.208Z,56.50
2017-09-07T12:54:30.110Z,56.50
2017-09-07T12:57:00.036Z,56.50
2017-09-07T12:59:27.674Z,56.50
2017-09-07T13:01:55.370Z,56.50
2017-09-07T13:04:23.608Z,56.30
2017-09-07T13:06:51.137Z,56.30
2017-09-07T13:09:19.412Z,56.80
2017-09-07T13:11:47.253Z,56.70
2017-09-07T13:14:14.859Z,57.50
2017-09-07T13:16:42.531Z,56.80
2017-09-07T13:19:10.190Z,56.90
2017-09-07T13:21:47.669Z,57.00
2017-09-07T13:24:15.996Z,56.80
2017-09-07T13:26:43.778Z,56.80
2017-09-07T13:29:11.350Z,56.90
2017-09-07T13:31:39.035Z,56.70
2017-09-07T13:34:06.563Z,56.50
2017-09-07T13:36:34.103Z,56.90
2017-09-07T13:39:01.950Z,56.90
2017-09-07T13:41:29.515Z,56.70
2017-09-07T13:43:57.010Z,56.50
2017-09-07T13:46:24.697Z,56.70
2017-09-07T13:48:52.202Z,56.50
2017-09-07T13:51:19.691Z,56.50
2017-09-07T13:53:47.218Z,56.30
2017-09-07T13:56:14.787Z,56.30
2017-09-07T13:58:42.339Z,56.20
2017-09-07T14:01:09.853Z,56.20
2017-09-07T14:03:37.371Z,56.30
2017-09-07T14:06:04.923Z,56.20
2017-09-07T14:08:32.449Z,56.10
2017-09-07T14:11:00.014Z,56.30
2017-09-07T14:13:27.626Z,56.00
2017-09-07T14:15:55.154Z,55.80
2017-09-07T14:18:22.689Z,56.20
2017-09-07T14:20:50.302Z,57.00
2017-09-07T14:23:17.829Z,56.70
2017-09-07T14:25:45.551Z,56.70
2017-09-07T14:28:13.067Z,56.40
2017-09-07T14:30:40.660Z,56.40
2017-09-07T14:33:08.259Z,56.20
2017-09-07T14:35:36.677Z,56.20
2017-09-07T14:38:05.603Z,56.10
2017-09-07T14:40:34.142Z,56.30
2017-09-07T14:43:01.737Z,56.10
2017-09-07T14:45:30.441Z,56.20
2017-09-07T14:47:59.129Z,56.00
2017-09-07T14:50:26.646Z,55.80
2017-09-07T14:52:54.238Z,55.90
2017-09-07T14:55:21.782Z,56.00
2017-09-07T14:57:49.319Z,55.80
2017-09-07T15:00:17.028Z,55.90
2017-09-07T15:02:44.986Z,56.00
2017-09-07T15:05:14.550Z,56.00
2017-09-07T15:07:42.312Z,55.90
2017-09-07T15:10:09.817Z,56.20
2017-09-07T15:12:37.328Z,56.20
2017-09-07T15:15:04.970Z,56.00
2017-09-07T15:17:33.256Z,56.20
2017-09-07T15:20:00.804Z,56.00
2017-09-07T15:22:29.133Z,56.00
2017-09-07T15:24:56.861Z,55.90
2017-09-07T15:27:24.440Z,55.80
2017-09-07T15:29:51.964Z,55.80
2017-09-07T15:32:20.247Z,55.60
2017-09-07T15:34:48.546Z,55.70
2017-09-07T15:37:16.163Z,55.70
2017-09-07T15:39:43.708Z,55.70
2017-09-07T15:42:11.463Z,55.80
2017-09-07T15:44:38.982Z,56.00
2017-09-07T15:47:06.599Z,55.90
2017-09-07T15:49:34.171Z,55.80
2017-09-07T15:52:01.728Z,55.90
2017-09-07T15:54:29.360Z,55.90
2017-09-07T15:56:56.899Z,55.70
2017-09-07T15:59:24.555Z,55.60
2017-09-07T16:01:52.066Z,55.50
2017-09-07T16:04:19.631Z,55.80
2017-09-07T16:06:47.274Z,56.00
2017-09-07T16:09:14.918Z,55.80
2017-09-07T16:11:42.462Z,55.80
2017-09-07T16:14:09.983Z,55.60
2017-09-07T16:16:37.521Z,55.30
2017-09-07T16:19:05.063Z,55.00
2017-09-07T16:21:32.747Z,54.90
2017-09-07T16:24:01.105Z,54.60
2017-09-07T16:26:28.677Z,54.50
2017-09-07T16:28:56.433Z,54.50
2017-09-07T16:31:23.989Z,54.40
2017-09-07T16:33:51.562Z,54.40
2017-09-07T16:36:19.094Z,54.40
2017-09-07T16:38:46.642Z,54.30
2017-09-07T16:41:14.955Z,54.10
2017-09-07T16:43:42.485Z,54.10
2017-09-07T16:46:10.109Z,54.10
2017-09-07T16:48:37.605Z,54.30
2017-09-07T16:51:06.004Z,53.80
2017-09-07T16:53:33.517Z,53.70
2017-09-07T16:56:01.842Z,54.20
2017-09-07T16:58:29.398Z,54.10
2017-09-07T17:00:57.203Z,54.30
2017-09-07T17:03:24.787Z,53.90
2017-09-07T17:05:52.424Z,54.20
2017-09-07T17:08:19.975Z,54.00
2017-09-07T17:10:47.496Z,54.20
2017-09-07T17:13:15.052Z,54.40
2017-09-07T17:15:43.347Z,54.40
2017-09-07T17:18:10.938Z,54.30
2017-09-07T17:20:38.461Z,54.40
2017-09-07T17:23:05.980Z,54.50
2017-09-07T17:25:33.674Z,52.60
2017-09-07T17:28:01.998Z,53.70
2017-09-07T17:30:29.561Z,53.60
2017-09-07T17:32:57.903Z,52.70
2017-09-07T17:35:25.400Z,52.70
2017-09-07T17:37:53.099Z,52.60
2017-09-07T17:40:20.767Z,52.50
2017-09-07T17:42:49.053Z,52.20
2017-09-07T17:45:17.341Z,52.20
2017-09-07T17:47:44.912Z,52.20
2017-09-07T17:50:12.512Z,52.00
2017-09-07T17:52:40.054Z,52.00
2017-09-07T17:55:07.544Z,52.20
2017-09-07T17:57:35.233Z,52.20
2017-09-07T18:00:03.589Z,52.30
2017-09-07T18:02:31.138Z,52.30
2017-09-07T18:04:58.687Z,52.20
2017-09-07T18:07:26.450Z,52.30
2017-09-07T18:09:54.965Z,52.80
2017-09-07T18:12:23.450Z,54.30
2017-09-07T18:14:51.159Z,54.40
2017-09-07T18:17:18.911Z,55.20
2017-09-07T18:19:46.604Z,55.90
2017-09-07T18:22:14.346Z,55.90
2017-09-07T18:24:41.919Z,55.80
2017-09-07T18:27:09.552Z,55.50
2017-09-07T18:29:37.865Z,55.20
2017-09-07T18:32:06.228Z,55.00
2017-09-07T18:34:33.780Z,55.00
2017-09-07T18:37:01.352Z,55.00
2017-09-07T18:39:28.896Z,55.00
2017-09-07T18:42:06.473Z,55.20
2017-09-07T18:44:35.392Z,55.20
2017-09-07T18:47:03.060Z,55.10
2017-09-07T18:49:30.726Z,55.20
2017-09-07T18:51:59.618Z,55.10
2017-09-07T18:54:28.662Z,55.20
2017-09-07T18:56:56.174Z,55.20
2017-09-07T18:59:23.728Z,55.10
2017-09-07T19:01:51.758Z,55.00
2017-09-07T19:04:19.260Z,55.00
2017-09-07T19:06:47.888Z,55.20
2017-09-07T19:09:15.924Z,55.20
2017-09-07T19:11:44.763Z,55.20
2017-09-07T19:14:12.378Z,55.20
2017-09-07T19:16:39.925Z,55.20
2017-09-07T19:19:07.610Z,55.20
2017-09-07T19:21:35.367Z,56.00
2017-09-07T19:24:03.135Z,55.10
2017-09-07T19:26:30.654Z,55.20
2017-09-07T19:28:59.036Z,56.10
2017-09-07T19:31:27.429Z,55.30
2017-09-07T19:33:55.143Z,55.20
2017-09-07T19:36:22.837Z,55.10
2017-09-07T19:38:50.365Z,55.10
2017-09-07T19:41:18.037Z,55.20
2017-09-07T19:43:45.768Z,55.20
2017-09-07T19:46:13.346Z,55.20
2017-09-07T19:48:40.988Z,55.20
2017-09-07T19:51:09.497Z,55.20
2017-09-07T19:53:37.075Z,55.20
2017-09-07T19:56:04.659Z,55.00
2017-09-07T19:58:32.940Z,55.00
2017-09-07T20:01:00.924Z,55.00
2017-09-07T20:03:30.338Z,55.00
2017-09-07T20:06:00.224Z,54.90
2017-09-07T20:08:28.609Z,55.00
2017-09-07T20:10:56.938Z,55.00
2017-09-07T20:13:25.193Z,54.90
2017-09-07T20:15:52.773Z,54.80
2017-09-07T20:18:21.487Z,54.90
2017-09-07T20:20:49.070Z,54.80
2017-09-07T20:23:17.362Z,54.80
2017-09-07T20:25:44.930Z,54.70
2017-09-07T20:28:12.618Z,54.70
2017-09-07T20:30:40.421Z,54.90
2017-09-07T20:33:09.270Z,55.00
2017-09-07T20:35:37.680Z,55.00
2017-09-07T20:38:05.542Z,54.90
2017-09-07T20:40:33.103Z,54.90
2017-09-07T20:43:00.622Z,54.80
2017-09-07T20:45:28.348Z,54.80
2017-09-07T20:47:56.166Z,54.70
2017-09-07T20:50:23.707Z,54.70
2017-09-07T20:52:51.232Z,54.70
2017-09-07T20:55:18.762Z,54.80
2017-09-07T20:57:46.500Z,54.80
2017-09-07T21:00:13.996Z,54.80
2017-09-07T21:02:41.638Z,54.80
2017-09-07T21:05:09.154Z,54.80
2017-09-07T21:07:37.562Z,54.80
2017-09-07T21:10:05.205Z,54.70
2017-09-07T21:12:32.992Z,54.90
2017-09-07T21:15:00.538Z,54.90
2017-09-07T21:17:28.150Z,54.90
2017-09-07T21:19:55.681Z,55.70
2017-09-07T21:22:23.386Z,54.80
2017-09-07T21:24:50.940Z,54.80
2017-09-07T21:27:18.471Z,54.90
2017-09-07T21:29:45.979Z,54.90
2017-09-07T21:32:13.502Z,54.80
2017-09-07T21:34:41.138Z,54.90
2017-09-07T21:37:09.175Z,55.00
2017-09-07T21:39:36.773Z,55.00
2017-09-07T21:42:04.298Z,55.00
2017-09-07T21:44:32.587Z,55.10
2017-09-07T21:47:00.144Z,55.00
2017-09-07T21:49:28.426Z,55.00
2017-09-07T21:51:55.946Z,55.00
2017-09-07T21:54:23.501Z,54.90
2017-09-07T21:56:51.006Z,55.00
2017-09-07T21:59:18.629Z,54.90
2017-09-07T22:01:46.201Z,54.90
2017-09-07T22:04:13.736Z,55.00
2017-09-07T22:06:41.269Z,55.20
2017-09-07T22:09:08.782Z,55.30
2017-09-07T22:11:36.294Z,55.10
2017-09-07T22:14:03.850Z,55.00
2017-09-07T22:16:34.073Z,55.10
2017-09-07T22:19:01.721Z,55.20
2017-09-07T22:21:29.325Z,55.30
2017-09-07T22:23:56.913Z,55.10
2017-09-07T22:26:24.540Z,55.10
2017-09-07T22:28:53.053Z,55.20
2017-09-07T22:31:20.713Z,55.20
2017-09-07T22:33:48.241Z,55.40
2017-09-07T22:36:15.739Z,55.20
2017-09-07T22:38:43.642Z,55.20
2017-09-07T22:41:11.205Z,55.00
2017-09-07T22:43:38.734Z,55.20
2017-09-07T22:46:07.067Z,55.40
2017-09-07T22:48:34.658Z,55.20
2017-09-07T22:51:02.180Z,55.20
2017-09-07T22:53:29.815Z,55.20
2017-09-07T22:55:57.423Z,55.30
2017-09-07T22:58:24.949Z,55.30
2017-09-07T23:00:52.481Z,55.30
2017-09-07T23:03:20.946Z,55.30
2017-09-07T23:05:48.475Z,55.30
2017-09-07T23:08:16.117Z,55.30
2017-09-07T23:10:43.626Z,55.10
2017-09-07T23:13:11.214Z,55.20
2017-09-07T23:15:38.746Z,55.30
2017-09-07T23:18:06.267Z,55.40
2017-09-07T23:20:33.783Z,55.30
2017-09-07T23:23:01.305Z,55.30
2017-09-07T23:25:28.813Z,55.40
2017-09-07T23:27:56.343Z,55.30
2017-09-07T23:30:23.958Z,55.30
2017-09-07T23:32:51.625Z,55.50
2017-09-07T23:35:19.127Z,55.40
2017-09-07T23:37:46.642Z,55.50
2017-09-07T23:40:14.211Z,55.60
2017-09-07T23:42:41.762Z,55.60
2017-09-07T23:45:09.451Z,55.70
2017-09-07T23:47:37.042Z,55.50
2017-09-07T23:50:04.577Z,55.60
2017-09-07T23:52:32.106Z,55.60
2017-09-07T23:54:59.748Z,55.60
2017-09-07T23:57:27.248Z,55.70
2017-09-07T23:59:54.793Z,55.70
